Main page
METAR-TAF:

METAR-TAF

Airports :

Teruel Airport

Teruel, Spain

latitude: 40-24-43N, longitude: 01-13-03W, elevation: 1030 m

Current weather observation

The report was made 36 minutes ago, at 09:30 UTC
Wind 7 kt from the East/Southeast, varying between East/Northeast and South
Temperature 25°C
Humidity 50%
Pressure 1022 hPa
Visibility 10 km or more

METAR: LETL 230930Z AUTO 12007KT 070V170 9999 NCD 25/14 Q1022

Time: 12:06 (10:06 UTC)


TAF: missing

Weather observations and forecasts of more than 4000 airports (METAR and TAF reports).

The available stations are represented by yellow and red dots on the map.

Hover mouse over dot to see the name of the station.

Then click to see weather observations and forecasts.

To change the map : click on the green buttons with a black cross to zoom in, on the green button with a dash to zoom out, or on the green arrows for adjacent maps.


METAR-TAF: